createdAt,value
2018-08-03T00:00:12.768Z,884.20
2018-08-03T00:02:41.982Z,885.23
2018-08-03T00:05:11.215Z,879.43
2018-08-03T00:07:40.610Z,882.40
2018-08-03T00:10:09.678Z,874.80
2018-08-03T00:12:45.419Z,895.33
2018-08-03T00:15:14.559Z,878.27
2018-08-03T00:17:43.839Z,880.77
2018-08-03T00:20:13.055Z,874.23
2018-08-03T00:22:42.403Z,879.83
2018-08-03T00:25:11.555Z,875.13
2018-08-03T00:27:40.687Z,884.07
2018-08-03T00:30:09.847Z,877.93
2018-08-03T00:32:39.185Z,872.27
2018-08-03T00:35:08.306Z,868.87
2018-08-03T00:37:37.494Z,875.43
2018-08-03T00:40:06.687Z,876.93
2018-08-03T00:42:35.778Z,867.07
2018-08-03T00:45:05.766Z,879.57
2018-08-03T00:47:35.233Z,875.50
2018-08-03T00:50:04.840Z,874.13
2018-08-03T00:52:34.089Z,867.90
2018-08-03T00:55:03.271Z,859.77
2018-08-03T00:57:32.522Z,876.33
2018-08-03T01:00:01.687Z,873.40
2018-08-03T01:02:30.786Z,860.37
2018-08-03T01:04:59.949Z,862.93
2018-08-03T01:07:29.139Z,873.03
2018-08-03T01:09:58.207Z,862.37
2018-08-03T01:12:27.404Z,860.67
2018-08-03T01:14:56.482Z,866.13
2018-08-03T01:17:25.674Z,854.27
2018-08-03T01:19:54.975Z,852.50
2018-08-03T01:22:24.196Z,852.53
2018-08-03T01:24:53.692Z,851.27
2018-08-03T01:27:22.942Z,853.33
2018-08-03T01:29:51.901Z,844.73
2018-08-03T01:32:21.113Z,842.70
2018-08-03T01:34:50.367Z,843.50
2018-08-03T01:37:19.410Z,852.53
2018-08-03T01:39:49.251Z,873.37
2018-08-03T01:42:18.275Z,847.87
2018-08-03T01:44:47.598Z,844.43
2018-08-03T01:47:16.927Z,842.50
2018-08-03T01:49:46.026Z,844.63
2018-08-03T01:52:15.146Z,847.90
2018-08-03T01:54:43.984Z,852.53
2018-08-03T01:57:12.950Z,847.77
2018-08-03T01:59:42.184Z,850.57
2018-08-03T02:02:11.395Z,855.87
2018-08-03T02:04:40.571Z,851.40
2018-08-03T02:07:09.813Z,851.93
2018-08-03T02:09:38.983Z,835.63
2018-08-03T02:12:08.782Z,837.03
2018-08-03T02:14:38.081Z,846.40
2018-08-03T02:17:07.193Z,841.37
2018-08-03T02:19:36.346Z,843.53
2018-08-03T02:22:05.411Z,845.37
2018-08-03T02:24:34.477Z,840.53
2018-08-03T02:27:03.626Z,836.60
2018-08-03T02:29:33.206Z,853.90
2018-08-03T02:32:01.934Z,836.53
2018-08-03T02:34:30.995Z,840.97
2018-08-03T02:37:00.081Z,843.53
2018-08-03T02:39:29.151Z,837.93
2018-08-03T02:41:58.246Z,833.30
2018-08-03T02:44:27.476Z,836.13
2018-08-03T02:46:56.551Z,839.90
2018-08-03T02:49:25.656Z,835.37
2018-08-03T02:51:54.807Z,841.33
2018-08-03T02:54:24.024Z,835.80
2018-08-03T02:56:53.174Z,847.57
2018-08-03T02:59:22.220Z,835.30
2018-08-03T03:01:51.258Z,838.33
2018-08-03T03:04:20.448Z,838.80
2018-08-03T03:06:49.630Z,836.10
2018-08-03T03:09:18.692Z,840.57
2018-08-03T03:11:47.806Z,836.27
2018-08-03T03:14:17.031Z,831.73
2018-08-03T03:16:46.365Z,830.13
2018-08-03T03:19:15.486Z,849.70
2018-08-03T03:21:44.702Z,836.10
2018-08-03T03:24:14.231Z,832.07
2018-08-03T03:26:43.850Z,846.87
2018-08-03T03:29:12.992Z,839.53
2018-08-03T03:31:42.195Z,823.37
2018-08-03T03:34:11.523Z,835.17
2018-08-03T03:36:40.642Z,833.27
2018-08-03T03:39:12.324Z,841.63
2018-08-03T03:41:41.622Z,840.33
2018-08-03T03:44:10.922Z,831.33
2018-08-03T03:46:40.044Z,841.73
2018-08-03T03:49:09.235Z,837.80
2018-08-03T03:51:38.529Z,832.90
2018-08-03T03:54:07.749Z,848.13
2018-08-03T03:56:36.930Z,847.07
2018-08-03T03:59:06.219Z,856.77
2018-08-03T04:01:35.417Z,849.23
2018-08-03T04:04:04.627Z,843.43
2018-08-03T04:06:33.920Z,850.50
2018-08-03T04:09:03.138Z,852.77
2018-08-03T04:11:32.407Z,838.10
2018-08-03T04:14:01.666Z,841.17
2018-08-03T04:16:30.824Z,838.30
2018-08-03T04:18:59.945Z,834.17
2018-08-03T04:21:29.030Z,837.53
2018-08-03T04:23:58.122Z,840.93
2018-08-03T04:26:27.306Z,845.77
2018-08-03T04:28:56.707Z,842.50
2018-08-03T04:31:26.178Z,850.13
2018-08-03T04:33:55.395Z,842.70
2018-08-03T04:36:24.551Z,844.90
2018-08-03T04:38:53.644Z,850.63
2018-08-03T04:41:22.774Z,850.50
2018-08-03T04:43:51.885Z,859.10
2018-08-03T04:46:21.198Z,868.93
2018-08-03T04:48:50.434Z,867.37
2018-08-03T04:51:19.480Z,866.67
2018-08-03T04:53:49.094Z,876.50
2018-08-03T04:56:18.830Z,891.90
2018-08-03T04:58:48.067Z,879.17
2018-08-03T05:01:17.547Z,892.47
2018-08-03T05:03:46.706Z,908.37
2018-08-03T05:06:15.874Z,919.03
2018-08-03T05:08:44.917Z,898.30
2018-08-03T05:11:14.208Z,906.93
2018-08-03T05:13:43.290Z,919.83
2018-08-03T05:16:12.366Z,961.83
2018-08-03T05:18:41.627Z,952.47
2018-08-03T05:21:10.724Z,943.30
2018-08-03T05:23:39.980Z,951.80
2018-08-03T05:26:09.236Z,954.70
2018-08-03T05:28:38.372Z,933.33
2018-08-03T05:31:08.255Z,923.70
2018-08-03T05:33:37.539Z,909.20
2018-08-03T05:36:06.706Z,913.03
2018-08-03T05:38:36.160Z,911.43
2018-08-03T05:41:05.236Z,928.67
2018-08-03T05:43:34.383Z,911.60
2018-08-03T05:46:03.724Z,888.53
2018-08-03T05:48:32.619Z,893.80
2018-08-03T05:51:01.620Z,881.10
2018-08-03T05:53:30.899Z,886.77
2018-08-03T05:56:00.199Z,893.03
2018-08-03T05:58:29.331Z,884.47
2018-08-03T06:00:58.724Z,904.97
2018-08-03T06:03:27.826Z,896.17
2018-08-03T06:05:57.623Z,892.43
2018-08-03T06:08:26.964Z,892.07
2018-08-03T06:10:56.480Z,898.67
2018-08-03T06:13:25.700Z,903.07
2018-08-03T06:15:54.908Z,907.20
2018-08-03T06:18:24.119Z,906.30
2018-08-03T06:20:53.451Z,893.33
2018-08-03T06:23:22.727Z,903.17
2018-08-03T06:25:51.988Z,900.00
2018-08-03T06:28:21.133Z,891.10
2018-08-03T06:30:50.255Z,904.63
2018-08-03T06:33:19.509Z,938.63
2018-08-03T06:35:48.718Z,927.73
2018-08-03T06:38:17.891Z,902.33
2018-08-03T06:40:46.950Z,923.90
2018-08-03T06:43:16.016Z,933.67
2018-08-03T06:45:45.260Z,936.67
2018-08-03T06:48:14.454Z,918.10
2018-08-03T06:50:43.824Z,921.33
2018-08-03T06:53:12.883Z,928.80
2018-08-03T06:55:42.056Z,917.93
2018-08-03T06:58:11.317Z,924.37
2018-08-03T07:00:40.550Z,930.30
2018-08-03T07:03:09.770Z,945.13
2018-08-03T07:05:38.976Z,954.63
2018-08-03T07:08:08.336Z,950.00
2018-08-03T07:10:37.554Z,961.33
2018-08-03T07:13:06.857Z,942.97
2018-08-03T07:15:36.131Z,959.70
2018-08-03T07:18:05.476Z,931.13
2018-08-03T07:20:34.796Z,943.80
2018-08-03T07:23:03.804Z,931.23
2018-08-03T07:25:33.014Z,944.43
2018-08-03T07:28:02.203Z,953.30
2018-08-03T07:30:31.499Z,972.03
2018-08-03T07:33:00.607Z,940.07
2018-08-03T07:35:29.692Z,941.97
2018-08-03T07:37:59.247Z,951.73
2018-08-03T07:40:28.443Z,966.80
2018-08-03T07:42:57.578Z,958.00
2018-08-03T07:45:26.715Z,945.50
2018-08-03T07:47:55.949Z,963.03
2018-08-03T07:50:25.489Z,944.27
2018-08-03T07:52:54.711Z,979.23
2018-08-03T07:55:24.629Z,988.10
2018-08-03T07:57:54.275Z,991.97
2018-08-03T08:00:23.398Z,1012.07
2018-08-03T08:02:52.547Z,1006.50
2018-08-03T08:05:21.764Z,982.90
2018-08-03T08:07:51.063Z,962.60
2018-08-03T08:10:20.297Z,977.27
2018-08-03T08:12:49.474Z,985.13
2018-08-03T08:15:18.742Z,987.90
2018-08-03T08:17:48.363Z,989.87
2018-08-03T08:20:17.467Z,986.17
2018-08-03T08:22:46.630Z,978.67
2018-08-03T08:25:16.195Z,989.43
2018-08-03T08:27:45.488Z,981.70
2018-08-03T08:30:14.717Z,1007.43
2018-08-03T08:32:44.206Z,987.57
2018-08-03T08:35:13.622Z,977.43
2018-08-03T08:37:42.838Z,1000.03
2018-08-03T08:40:11.646Z,1003.90
2018-08-03T08:42:40.876Z,989.83
2018-08-03T08:45:10.543Z,1001.50
2018-08-03T08:47:40.092Z,1008.20
2018-08-03T08:50:09.839Z,1007.57
2018-08-03T08:52:39.175Z,1013.33
2018-08-03T08:55:08.347Z,998.10
2018-08-03T08:57:37.554Z,1009.30
2018-08-03T09:00:06.944Z,1017.27
2018-08-03T09:02:36.250Z,1021.57
2018-08-03T09:05:05.784Z,1013.07
2018-08-03T09:07:35.318Z,1030.73
2018-08-03T09:10:04.589Z,1014.17
2018-08-03T09:12:33.787Z,1027.43
2018-08-03T09:15:02.978Z,1021.23
2018-08-03T09:17:32.547Z,1004.77
2018-08-03T09:20:01.763Z,1018.87
2018-08-03T09:22:31.115Z,1021.23
2018-08-03T09:25:00.279Z,1033.40
2018-08-03T09:27:29.499Z,1011.83
2018-08-03T09:29:58.751Z,1008.23
2018-08-03T09:32:28.900Z,1028.87
2018-08-03T09:34:58.016Z,1007.97
2018-08-03T09:37:27.441Z,1023.87
2018-08-03T09:39:56.682Z,1001.30
2018-08-03T09:42:26.114Z,1015.57
2018-08-03T09:44:55.271Z,1015.57
2018-08-03T09:47:24.468Z,1010.73
2018-08-03T09:49:53.902Z,996.00
2018-08-03T09:52:23.004Z,1015.70
2018-08-03T09:54:52.455Z,1019.60
2018-08-03T09:57:21.596Z,1037.57
2018-08-03T09:59:50.918Z,1011.40
2018-08-03T10:02:20.533Z,996.73
2018-08-03T10:04:49.904Z,995.07
2018-08-03T10:07:19.079Z,994.80
2018-08-03T10:09:48.253Z,973.77
2018-08-03T10:12:17.488Z,975.10
2018-08-03T10:14:46.703Z,996.90
2018-08-03T10:17:15.798Z,1020.97
2018-08-03T10:19:45.303Z,1023.20
2018-08-03T10:22:14.428Z,998.03
2018-08-03T10:24:43.347Z,1001.37
2018-08-03T10:27:12.440Z,985.33
2018-08-03T10:29:41.847Z,1026.77
2018-08-03T10:32:11.058Z,1032.73
2018-08-03T10:34:40.507Z,1046.73
2018-08-03T10:37:09.618Z,1043.80
2018-08-03T10:39:38.872Z,1045.77
2018-08-03T10:42:08.136Z,1016.13
2018-08-03T10:44:37.295Z,1026.43
2018-08-03T10:47:07.173Z,1015.50
2018-08-03T10:49:36.455Z,1017.67
2018-08-03T10:52:05.914Z,1029.07
2018-08-03T10:54:35.266Z,1063.30
2018-08-03T10:57:04.612Z,1047.67
2018-08-03T10:59:33.922Z,1032.53
2018-08-03T11:02:03.225Z,1030.73
2018-08-03T11:04:32.427Z,1047.07
2018-08-03T11:07:01.552Z,1040.40
2018-08-03T11:09:30.735Z,1041.33
2018-08-03T11:11:59.897Z,1020.23
2018-08-03T11:14:28.993Z,1040.37
2018-08-03T11:16:58.058Z,1004.60
2018-08-03T11:19:28.343Z,981.53
2018-08-03T11:21:57.851Z,994.50
2018-08-03T11:24:26.994Z,981.67
2018-08-03T11:26:56.128Z,966.83
2018-08-03T11:29:25.538Z,971.43
2018-08-03T11:31:55.026Z,1001.43
2018-08-03T11:34:24.268Z,996.50
2018-08-03T11:36:53.450Z,997.27
2018-08-03T11:39:22.559Z,1011.00
2018-08-03T11:41:51.768Z,986.83
2018-08-03T11:44:21.018Z,1000.37
2018-08-03T11:46:50.336Z,973.53
2018-08-03T11:49:19.661Z,985.43
2018-08-03T11:51:48.851Z,988.57
2018-08-03T11:54:18.032Z,990.87
2018-08-03T11:56:46.815Z,993.73
2018-08-03T11:59:15.515Z,1032.00
2018-08-03T12:01:44.657Z,1048.00
2018-08-03T12:04:13.909Z,1024.90
2018-08-03T12:06:42.734Z,1042.03
2018-08-03T12:09:12.082Z,1044.70
2018-08-03T12:11:41.189Z,1046.47
2018-08-03T12:14:10.573Z,1034.53
2018-08-03T12:16:39.764Z,1011.00
2018-08-03T12:19:08.992Z,1042.37
2018-08-03T12:21:38.635Z,1033.23
2018-08-03T12:24:08.025Z,1014.07
2018-08-03T12:26:37.175Z,990.93
2018-08-03T12:29:06.513Z,988.80
2018-08-03T12:31:35.756Z,982.87
2018-08-03T12:34:04.992Z,1012.17
2018-08-03T12:36:34.256Z,1000.67
2018-08-03T12:39:03.685Z,997.87
2018-08-03T12:41:33.196Z,999.63
2018-08-03T12:44:02.499Z,1002.27
2018-08-03T12:46:32.077Z,999.03
2018-08-03T12:49:01.231Z,1001.73
2018-08-03T12:51:30.718Z,1004.77
2018-08-03T12:53:59.963Z,1019.47
2018-08-03T12:56:29.275Z,1058.07
2018-08-03T12:58:58.404Z,1085.70
2018-08-03T13:01:27.834Z,1069.77
2018-08-03T13:03:56.633Z,1092.10
2018-08-03T13:06:25.762Z,1064.83
2018-08-03T13:08:54.895Z,1085.30
2018-08-03T13:11:24.171Z,1086.87
2018-08-03T13:13:53.524Z,1090.90
2018-08-03T13:16:22.813Z,1101.23
2018-08-03T13:18:52.113Z,1116.53
2018-08-03T13:21:32.624Z,1103.57
2018-08-03T13:24:02.596Z,1091.23
2018-08-03T13:26:32.038Z,1110.00
2018-08-03T13:29:01.519Z,1110.67
2018-08-03T13:31:31.338Z,1080.67
2018-08-03T13:34:00.807Z,1101.43
2018-08-03T13:36:31.184Z,1107.13
2018-08-03T13:39:00.528Z,1103.93
2018-08-03T13:41:29.705Z,1099.27
2018-08-03T13:43:58.997Z,1082.57
2018-08-03T13:46:28.210Z,1092.37
2018-08-03T13:48:57.750Z,1006.27
2018-08-03T13:51:27.040Z,1026.67
2018-08-03T13:53:56.360Z,1011.37
2018-08-03T13:56:25.542Z,1015.43
2018-08-03T13:58:54.941Z,1005.00
2018-08-03T14:01:37.451Z,1015.73
2018-08-03T14:04:07.000Z,994.07
2018-08-03T14:06:36.102Z,1018.03
2018-08-03T14:09:06.653Z,1031.27
2018-08-03T14:11:36.012Z,1018.27
2018-08-03T14:14:05.407Z,1032.37
2018-08-03T14:16:34.715Z,1034.80
2018-08-03T14:19:04.219Z,1044.20
2018-08-03T14:21:33.736Z,1055.93
2018-08-03T14:24:03.270Z,1031.47
2018-08-03T14:26:32.500Z,1054.33
2018-08-03T14:29:01.784Z,1024.20
2018-08-03T14:31:31.165Z,1011.13
2018-08-03T14:34:00.281Z,1017.00
2018-08-03T14:36:29.755Z,1027.60
2018-08-03T14:38:59.226Z,1013.47
2018-08-03T14:41:28.570Z,1013.17
2018-08-03T14:43:57.838Z,1027.43
2018-08-03T14:46:27.361Z,1009.20
2018-08-03T14:48:56.547Z,1029.33
2018-08-03T14:51:25.705Z,1012.20
2018-08-03T14:53:54.956Z,1015.20
2018-08-03T14:56:24.316Z,1015.43
2018-08-03T14:58:53.901Z,1050.73
2018-08-03T15:01:23.150Z,1015.10
2018-08-03T15:03:53.025Z,1036.57
2018-08-03T15:06:22.240Z,1028.93
2018-08-03T15:08:51.508Z,1031.13
2018-08-03T15:11:20.683Z,1008.80
2018-08-03T15:13:50.067Z,1005.27
2018-08-03T15:16:19.199Z,1002.60
2018-08-03T15:18:48.363Z,1033.30
2018-08-03T15:21:17.638Z,1010.53
2018-08-03T15:23:46.806Z,990.13
2018-08-03T15:26:15.926Z,1014.03
2018-08-03T15:28:45.110Z,1008.47
2018-08-03T15:31:14.369Z,987.07
2018-08-03T15:33:43.628Z,1038.50
2018-08-03T15:36:12.886Z,1035.80
2018-08-03T15:38:42.160Z,1002.50
2018-08-03T15:41:11.433Z,1023.73
2018-08-03T15:43:40.654Z,1015.07
2018-08-03T15:46:09.755Z,1015.43
2018-08-03T15:48:38.770Z,1009.77
2018-08-03T15:51:07.754Z,1000.20
2018-08-03T15:53:37.027Z,1030.07
2018-08-03T15:56:06.302Z,1022.03
2018-08-03T15:58:35.764Z,1007.27
2018-08-03T16:01:04.978Z,1023.33
2018-08-03T16:03:34.089Z,1027.37
2018-08-03T16:06:03.494Z,1029.00
2018-08-03T16:08:32.724Z,1042.97
2018-08-03T16:11:02.206Z,1020.10
2018-08-03T16:13:31.480Z,1013.37
2018-08-03T16:16:01.636Z,1040.87
2018-08-03T16:18:31.178Z,1075.03
2018-08-03T16:21:00.568Z,1073.07
2018-08-03T16:23:30.102Z,1057.70
2018-08-03T16:25:59.276Z,1053.23
2018-08-03T16:28:28.459Z,1073.20
2018-08-03T16:30:57.852Z,1069.40
2018-08-03T16:33:27.080Z,1045.60
2018-08-03T16:35:56.345Z,1040.43
2018-08-03T16:38:25.590Z,1051.33
2018-08-03T16:40:55.094Z,1014.27
2018-08-03T16:43:24.265Z,1044.70
2018-08-03T16:45:53.563Z,1042.73
2018-08-03T16:48:22.800Z,1015.47
2018-08-03T16:50:51.951Z,1023.43
2018-08-03T16:53:21.195Z,1048.23
2018-08-03T16:55:50.630Z,1092.63
2018-08-03T16:58:19.982Z,1020.80
2018-08-03T17:00:49.367Z,1088.07
2018-08-03T17:03:18.509Z,1015.60
2018-08-03T17:05:47.771Z,1012.27
2018-08-03T17:08:17.024Z,1021.47
2018-08-03T17:10:46.244Z,1133.77
2018-08-03T17:13:15.421Z,1033.27
2018-08-03T17:15:44.777Z,1037.67
2018-08-03T17:18:14.094Z,1018.23
2018-08-03T17:20:43.287Z,1003.33
2018-08-03T17:23:12.443Z,1027.33
2018-08-03T17:25:41.651Z,1005.30
2018-08-03T17:28:11.254Z,1018.03
2018-08-03T17:30:40.554Z,997.17
2018-08-03T17:33:10.043Z,993.47
2018-08-03T17:35:39.230Z,1129.93
2018-08-03T17:38:08.784Z,1113.90
2018-08-03T17:40:37.985Z,1074.37
2018-08-03T17:43:07.240Z,1043.33
2018-08-03T17:45:36.475Z,1015.80
2018-08-03T17:48:05.658Z,989.67
2018-08-03T17:50:34.838Z,1017.17
2018-08-03T17:53:04.067Z,989.43
2018-08-03T17:55:33.680Z,986.87
2018-08-03T17:58:03.314Z,997.50
2018-08-03T18:00:32.462Z,996.40
2018-08-03T18:03:01.814Z,1028.40
2018-08-03T18:05:31.122Z,1030.30
2018-08-03T18:08:00.250Z,1038.33
2018-08-03T18:10:29.366Z,1006.33
2018-08-03T18:12:58.724Z,1023.37
2018-08-03T18:15:27.990Z,1025.33
2018-08-03T18:17:57.275Z,1008.90
2018-08-03T18:20:26.581Z,1002.40
2018-08-03T18:22:55.783Z,1001.73
2018-08-03T18:25:25.021Z,1051.77
2018-08-03T18:27:54.271Z,1013.67
2018-08-03T18:30:23.659Z,1017.50
2018-08-03T18:32:53.190Z,998.20
2018-08-03T18:35:22.516Z,1003.13
2018-08-03T18:37:51.694Z,1035.73
2018-08-03T18:40:21.061Z,1032.60
2018-08-03T18:42:50.337Z,1025.47
2018-08-03T18:45:19.905Z,1020.40
2018-08-03T18:47:49.076Z,1023.67
2018-08-03T18:50:18.259Z,1022.03
2018-08-03T18:52:47.497Z,1016.30
2018-08-03T18:55:16.843Z,1016.17
2018-08-03T18:57:46.064Z,1013.67
2018-08-03T19:00:15.474Z,1020.43
2018-08-03T19:02:45.458Z,1007.87
2018-08-03T19:05:14.810Z,1007.97
2018-08-03T19:07:44.015Z,1019.50
2018-08-03T19:10:13.350Z,1015.03
2018-08-03T19:12:42.580Z,1017.50
2018-08-03T19:15:11.897Z,1008.93
2018-08-03T19:17:41.063Z,1010.07
2018-08-03T19:20:10.340Z,999.77
2018-08-03T19:22:39.530Z,998.60
2018-08-03T19:25:09.136Z,998.03
2018-08-03T19:27:38.623Z,1006.43
2018-08-03T19:30:07.838Z,995.67
2018-08-03T19:32:37.009Z,983.70
2018-08-03T19:35:06.600Z,999.33
2018-08-03T19:37:35.833Z,977.90
2018-08-03T19:40:06.121Z,951.47
2018-08-03T19:42:35.524Z,939.13
2018-08-03T19:45:05.445Z,957.67
2018-08-03T19:47:34.541Z,946.10
2018-08-03T19:50:03.843Z,949.10
2018-08-03T19:52:33.136Z,935.67
2018-08-03T19:55:02.342Z,930.37
2018-08-03T19:57:31.507Z,924.30
2018-08-03T20:00:00.715Z,924.37
2018-08-03T20:02:29.920Z,926.60
2018-08-03T20:04:59.127Z,935.90
2018-08-03T20:07:28.674Z,920.67
2018-08-03T20:09:57.980Z,929.73
2018-08-03T20:12:27.973Z,925.70
2018-08-03T20:14:57.367Z,923.37
2018-08-03T20:17:26.480Z,938.90
2018-08-03T20:19:55.932Z,934.27
2018-08-03T20:22:25.264Z,935.20
2018-08-03T20:24:54.754Z,940.37
2018-08-03T20:27:23.583Z,946.30
2018-08-03T20:29:52.928Z,951.37
2018-08-03T20:32:22.374Z,958.60
2018-08-03T20:34:51.717Z,960.40
2018-08-03T20:37:21.072Z,960.10
2018-08-03T20:39:51.090Z,952.87
2018-08-03T20:42:20.622Z,961.10
2018-08-03T20:44:50.146Z,958.77
2018-08-03T20:47:19.625Z,964.70
2018-08-03T20:49:48.913Z,954.80
2018-08-03T20:52:18.416Z,946.90
2018-08-03T20:54:47.586Z,948.80
2018-08-03T20:57:16.973Z,947.33
2018-08-03T20:59:46.302Z,951.37
2018-08-03T21:02:15.657Z,942.70
2018-08-03T21:04:45.166Z,939.37
2018-08-03T21:07:14.909Z,943.17
2018-08-03T21:09:44.541Z,937.73
2018-08-03T21:12:13.766Z,937.60
2018-08-03T21:14:43.204Z,923.63
2018-08-03T21:17:12.426Z,923.87
2018-08-03T21:19:41.744Z,928.90
2018-08-03T21:22:11.305Z,919.37
2018-08-03T21:24:40.157Z,924.23
2018-08-03T21:27:09.443Z,933.40
2018-08-03T21:29:38.662Z,931.73
2018-08-03T21:32:07.894Z,929.63
2018-08-03T21:34:37.060Z,932.87
2018-08-03T21:37:06.592Z,924.07
2018-08-03T21:39:35.878Z,928.10
2018-08-03T21:42:05.054Z,911.57
2018-08-03T21:44:34.278Z,906.43
2018-08-03T21:47:03.342Z,903.60
2018-08-03T21:49:32.573Z,900.70
2018-08-03T21:52:01.631Z,896.73
2018-08-03T21:54:30.720Z,921.37
2018-08-03T21:56:59.959Z,926.57
2018-08-03T21:59:29.284Z,928.27
2018-08-03T22:01:58.512Z,932.07
2018-08-03T22:04:27.602Z,912.23
2018-08-03T22:06:57.079Z,911.97
2018-08-03T22:09:26.268Z,919.10
2018-08-03T22:11:55.198Z,921.53
2018-08-03T22:14:24.207Z,916.37
2018-08-03T22:16:53.407Z,918.77
2018-08-03T22:19:22.598Z,919.50
2018-08-03T22:21:51.792Z,934.20
2018-08-03T22:24:21.111Z,918.90
2018-08-03T22:26:50.287Z,897.83
2018-08-03T22:29:19.526Z,896.63
2018-08-03T22:31:48.827Z,892.87
2018-08-03T22:34:18.003Z,895.33
2018-08-03T22:36:47.451Z,891.33
2018-08-03T22:39:16.629Z,914.10
2018-08-03T22:41:45.802Z,883.87
2018-08-03T22:44:14.911Z,884.87
2018-08-03T22:46:44.274Z,893.37
2018-08-03T22:49:13.527Z,887.13
2018-08-03T22:51:43.012Z,890.33
2018-08-03T22:54:12.031Z,875.17
2018-08-03T22:56:41.204Z,876.63
2018-08-03T22:59:10.143Z,885.83
2018-08-03T23:01:39.395Z,874.93
2018-08-03T23:04:08.805Z,919.70
2018-08-03T23:06:37.946Z,918.23
2018-08-03T23:09:08.351Z,897.20
2018-08-03T23:11:37.467Z,892.03
2018-08-03T23:14:06.882Z,886.87
2018-08-03T23:16:36.001Z,896.97
2018-08-03T23:19:05.220Z,892.20
2018-08-03T23:21:34.668Z,891.17
2018-08-03T23:24:04.040Z,883.10
2018-08-03T23:26:33.338Z,882.83
2018-08-03T23:29:02.499Z,873.67
2018-08-03T23:31:31.740Z,896.87
2018-08-03T23:34:01.035Z,873.77
2018-08-03T23:36:30.283Z,870.63
2018-08-03T23:38:59.535Z,872.13
2018-08-03T23:41:28.707Z,868.87
2018-08-03T23:43:57.991Z,891.43
2018-08-03T23:46:27.233Z,885.40
2018-08-03T23:48:56.422Z,891.80
2018-08-03T23:51:25.590Z,914.30
2018-08-03T23:53:54.704Z,899.53
2018-08-03T23:56:23.855Z,902.77
2018-08-03T23:58:53.105Z,899.90
